createdAt,value
2019-04-06T00:02:38.623Z,21.45
2019-04-06T00:05:10.866Z,26.07
2019-04-06T00:07:42.244Z,20.43
2019-04-06T00:10:13.887Z,22.90
2019-04-06T00:12:45.444Z,20.57
2019-04-06T00:15:17.138Z,24.67
2019-04-06T00:17:48.655Z,21.60
2019-04-06T00:20:20.437Z,20.65
2019-04-06T00:22:51.906Z,20.72
2019-04-06T00:25:23.913Z,23.90
2019-04-06T00:27:55.682Z,24.37
2019-04-06T00:30:29.566Z,21.25
2019-04-06T00:33:03.132Z,24.67
2019-04-06T00:35:36.092Z,23.18
2019-04-06T00:38:08.191Z,19.60
2019-04-06T00:40:39.771Z,20.48
2019-04-06T00:43:11.886Z,22.13
2019-04-06T00:45:43.617Z,22.48
2019-04-06T00:48:15.156Z,19.87
2019-04-06T00:50:46.925Z,26.75
2019-04-06T00:53:18.738Z,21.68
2019-04-06T00:55:55.467Z,25.52
2019-04-06T00:58:23.626Z,20.85
2019-04-06T01:00:55.924Z,25.65
2019-04-06T01:03:27.396Z,19.15
2019-04-06T01:05:59.016Z,21.35
2019-04-06T01:08:30.498Z,24.30
2019-04-06T01:11:02.123Z,19.25
2019-04-06T01:13:33.602Z,24.90
2019-04-06T01:16:05.261Z,24.45
2019-04-06T01:18:36.772Z,20.40
2019-04-06T01:21:08.341Z,24.43
2019-04-06T01:23:40.019Z,22.42
2019-04-06T01:26:11.674Z,26.52
2019-04-06T01:28:45.331Z,18.67
2019-04-06T01:31:17.397Z,26.60
2019-04-06T01:33:49.049Z,24.98
2019-04-06T01:36:20.607Z,27.22
2019-04-06T01:38:52.240Z,23.45
2019-04-06T01:41:24.417Z,24.18
2019-04-06T01:43:56.599Z,21.07
2019-04-06T01:46:28.694Z,19.80
2019-04-06T01:49:00.332Z,25.05
2019-04-06T01:51:32.104Z,22.20
2019-04-06T01:54:03.876Z,24.02
2019-04-06T01:56:35.961Z,22.62
2019-04-06T01:59:07.636Z,21.70
2019-04-06T02:01:57.481Z,24.15
2019-04-06T02:04:29.092Z,24.25
2019-04-06T02:07:00.853Z,21.63
2019-04-06T02:09:32.479Z,24.57
2019-04-06T02:12:04.416Z,23.22
2019-04-06T02:14:36.477Z,24.18
2019-04-06T02:17:08.256Z,24.43
2019-04-06T02:19:39.981Z,23.12
2019-04-06T02:22:11.841Z,22.65
2019-04-06T02:24:43.622Z,24.85
2019-04-06T02:27:15.245Z,22.90
2019-04-06T02:29:49.138Z,25.60
2019-04-06T02:32:22.279Z,24.32
2019-04-06T02:34:55.832Z,23.52
2019-04-06T02:37:29.323Z,28.40
2019-04-06T02:40:14.718Z,22.07
2019-04-06T02:42:48.198Z,23.27
2019-04-06T02:45:20.242Z,22.00
2019-04-06T02:47:51.755Z,23.00
2019-04-06T02:50:23.525Z,24.23
2019-04-06T02:52:55.129Z,20.97
2019-04-06T02:55:26.596Z,22.52
2019-04-06T02:57:58.324Z,23.38
2019-04-06T03:00:29.937Z,22.22
2019-04-06T03:03:01.555Z,25.65
2019-04-06T03:05:33.239Z,20.93
2019-04-06T03:08:04.750Z,25.32
2019-04-06T03:10:36.434Z,25.72
2019-04-06T03:13:07.915Z,22.23
2019-04-06T03:15:39.791Z,21.87
2019-04-06T03:18:11.351Z,19.95
2019-04-06T03:20:42.985Z,20.97
2019-04-06T03:23:14.669Z,21.50
2019-04-06T03:25:46.278Z,22.62
2019-04-06T03:28:17.878Z,22.48
2019-04-06T03:30:49.340Z,24.03
2019-04-06T03:33:21.295Z,21.65
2019-04-06T03:35:53.283Z,20.72
2019-04-06T03:38:24.899Z,22.20
2019-04-06T03:40:56.844Z,21.68
2019-04-06T03:43:28.321Z,20.37
2019-04-06T03:46:00.002Z,24.37
2019-04-06T03:48:31.976Z,21.15
2019-04-06T03:51:03.859Z,22.37
2019-04-06T03:53:35.601Z,22.80
2019-04-06T03:56:07.205Z,23.52
2019-04-06T03:58:39.041Z,24.02
2019-04-06T04:01:10.618Z,23.80
2019-04-06T04:03:42.508Z,23.27
2019-04-06T04:06:13.923Z,22.52
2019-04-06T04:08:45.756Z,21.15
2019-04-06T04:11:17.609Z,21.82
2019-04-06T04:13:49.328Z,23.70
2019-04-06T04:16:21.240Z,19.87
2019-04-06T04:18:53.147Z,22.17
2019-04-06T04:21:24.923Z,19.97
2019-04-06T04:23:57.763Z,21.00
2019-04-06T04:26:29.267Z,21.27
2019-04-06T04:29:00.730Z,20.55
2019-04-06T04:31:32.283Z,21.40
2019-04-06T04:34:03.936Z,20.43
2019-04-06T04:36:36.389Z,19.62
2019-04-06T04:39:09.079Z,24.43
2019-04-06T04:41:40.773Z,19.65
2019-04-06T04:44:12.485Z,23.20
2019-04-06T04:46:44.007Z,21.82
2019-04-06T04:49:15.525Z,23.05
2019-04-06T04:51:47.308Z,22.10
2019-04-06T04:54:19.284Z,21.93
2019-04-06T04:56:51.019Z,20.62
2019-04-06T04:59:22.597Z,19.97
2019-04-06T05:01:54.286Z,21.40
2019-04-06T05:04:25.901Z,20.72
2019-04-06T05:06:57.323Z,23.70
2019-04-06T05:09:28.960Z,20.90
2019-04-06T05:12:00.910Z,22.10
2019-04-06T05:15:09.778Z,21.05
2019-04-06T05:17:41.299Z,21.05
2019-04-06T05:20:13.598Z,21.33
2019-04-06T05:22:45.254Z,18.62
2019-04-06T05:25:16.802Z,19.17
2019-04-06T05:27:52.579Z,21.93
2019-04-06T05:30:21.659Z,19.48
2019-04-06T05:32:53.717Z,19.98
2019-04-06T05:35:25.467Z,24.43
2019-04-06T05:37:56.998Z,20.55
2019-04-06T05:40:28.530Z,22.80
2019-04-06T05:43:00.137Z,19.37
2019-04-06T05:45:32.261Z,16.90
2019-04-06T05:48:04.084Z,18.65
2019-04-06T05:50:35.563Z,16.95
2019-04-06T05:53:07.166Z,21.15
2019-04-06T05:55:39.040Z,19.37
2019-04-06T18:26:15.810Z,43.87
2019-04-06T18:28:48.335Z,55.33
2019-04-06T18:31:21.465Z,59.48
2019-04-06T18:33:53.587Z,71.17
2019-04-06T18:36:27.640Z,79.35
2019-04-06T18:39:00.951Z,67.08
2019-04-06T18:41:34.644Z,48.40
2019-04-06T18:44:07.145Z,45.80
2019-04-06T18:46:39.358Z,46.10
2019-04-06T18:49:10.957Z,37.70
2019-04-06T18:51:43.367Z,30.92
2019-04-06T18:54:14.885Z,29.48
2019-04-06T18:56:47.096Z,28.77
2019-04-06T18:59:19.443Z,27.75
2019-04-06T19:01:51.072Z,30.50
2019-04-06T19:04:22.858Z,29.70
2019-04-06T19:06:54.571Z,24.63
2019-04-06T19:09:26.799Z,102.12
2019-04-06T19:11:58.601Z,68.55
2019-04-06T19:14:30.593Z,104.25
2019-04-06T19:17:02.455Z,115.82
2019-04-06T19:19:35.278Z,143.30
2019-04-06T19:22:07.158Z,115.60
2019-04-06T19:24:39.595Z,157.88
2019-04-06T19:27:15.232Z,114.07
2019-04-06T19:29:47.439Z,82.25
2019-04-06T19:32:19.687Z,49.00
2019-04-06T19:34:51.618Z,31.45
2019-04-06T19:37:23.815Z,32.55
2019-04-06T19:39:55.823Z,31.85
2019-04-06T19:42:27.484Z,29.80
2019-04-06T19:44:59.218Z,37.55
2019-04-06T19:47:32.364Z,29.42
2019-04-06T19:50:04.859Z,31.00
2019-04-06T19:52:36.389Z,34.20
2019-04-06T19:55:10.104Z,29.90
2019-04-06T19:57:41.840Z,28.05
2019-04-06T20:00:15.709Z,30.52
2019-04-06T20:02:47.652Z,29.98
2019-04-06T20:05:19.638Z,28.35
2019-04-06T20:07:51.515Z,41.58
2019-04-06T20:10:23.102Z,35.40
2019-04-06T20:12:55.253Z,36.53
2019-04-06T20:15:27.096Z,60.60
2019-04-06T20:17:59.112Z,47.90
2019-04-06T20:20:31.524Z,43.05
2019-04-06T20:23:03.368Z,43.35
2019-04-06T20:25:35.107Z,35.15
2019-04-06T20:28:06.807Z,31.52
2019-04-06T20:30:38.555Z,29.18
2019-04-06T20:33:11.027Z,25.92
2019-04-06T20:35:43.031Z,27.37
2019-04-06T20:38:15.120Z,27.32
2019-04-06T20:40:47.113Z,35.58
2019-04-06T20:43:19.732Z,39.60
2019-04-06T20:45:51.253Z,37.73
2019-04-06T20:48:23.099Z,47.75
2019-04-06T20:50:55.231Z,40.17
2019-04-06T20:53:26.642Z,37.30
2019-04-06T20:55:58.492Z,36.38
2019-04-06T20:58:31.288Z,37.73
2019-04-06T21:01:02.971Z,32.63
2019-04-06T21:03:34.869Z,34.08
2019-04-06T21:06:06.504Z,33.28
2019-04-06T21:08:39.003Z,35.95
2019-04-06T21:11:10.837Z,32.80
2019-04-06T21:13:42.584Z,33.33
2019-04-06T21:16:15.291Z,31.33
2019-04-06T21:18:47.011Z,35.17
2019-04-06T21:21:18.951Z,26.70
2019-04-06T21:23:51.099Z,28.57
2019-04-06T21:26:23.654Z,30.43
2019-04-06T21:28:55.685Z,35.60
2019-04-06T21:31:27.422Z,27.93
2019-04-06T21:34:09.766Z,32.63
2019-04-06T21:36:33.409Z,31.75
2019-04-06T21:39:07.069Z,28.98
2019-04-06T21:41:39.609Z,28.47
2019-04-06T21:44:11.321Z,27.07
2019-04-06T21:46:43.453Z,32.45
2019-04-06T21:49:15.551Z,25.00
2019-04-06T21:51:49.365Z,29.63
2019-04-06T21:54:21.272Z,29.30
2019-04-06T21:56:53.454Z,28.27
2019-04-06T21:59:25.731Z,26.93
2019-04-06T22:01:58.071Z,27.37
2019-04-06T22:04:30.368Z,32.13
2019-04-06T22:07:02.315Z,24.85
2019-04-06T22:09:34.126Z,26.30
2019-04-06T22:12:06.162Z,26.15
2019-04-06T22:14:38.513Z,30.62
2019-04-06T22:17:10.885Z,26.95
2019-04-06T22:19:42.598Z,33.20
2019-04-06T22:22:14.949Z,27.40
2019-04-06T22:24:47.258Z,27.52
2019-04-06T22:27:18.978Z,30.08
2019-04-06T22:29:51.135Z,30.30
2019-04-06T22:32:24.627Z,28.15
2019-04-06T22:34:57.911Z,29.32
2019-04-06T22:37:30.191Z,27.67
2019-04-06T22:40:02.406Z,36.03
2019-04-06T22:42:34.313Z,27.00
2019-04-06T22:45:07.164Z,29.52
2019-04-06T22:47:39.355Z,25.27
2019-04-06T22:50:12.022Z,26.73
2019-04-06T22:52:45.228Z,28.25
2019-04-06T22:55:17.713Z,27.55
2019-04-06T22:57:50.457Z,28.47
2019-04-06T23:00:30.502Z,34.05
2019-04-06T23:03:03.988Z,27.22
2019-04-06T23:05:37.418Z,26.65
2019-04-06T23:08:09.820Z,27.30
2019-04-06T23:10:42.147Z,29.30
2019-04-06T23:13:14.968Z,26.30
2019-04-06T23:15:47.997Z,31.77
2019-04-06T23:18:20.899Z,30.97
2019-04-06T23:20:52.906Z,30.10
2019-04-06T23:23:24.681Z,31.10
2019-04-06T23:25:56.596Z,29.57
2019-04-06T23:28:28.483Z,31.55
2019-04-06T23:31:00.414Z,26.35
2019-04-06T23:33:32.258Z,33.60
2019-04-06T23:36:04.043Z,33.78
2019-04-06T23:38:36.006Z,28.57
2019-04-06T23:41:07.873Z,30.10
2019-04-06T23:43:39.661Z,26.35
2019-04-06T23:46:11.528Z,34.08
2019-04-06T23:48:43.186Z,32.95
2019-04-06T23:51:16.455Z,26.65
2019-04-06T23:53:48.979Z,31.65
2019-04-06T23:56:20.700Z,34.73
2019-04-06T23:58:53.512Z,33.80
